sensor_id;sensor_type;location;lat;lon;timestamp;P1;durP1;ratioP1;P2;durP2;ratioP2
51602;SDS011;37954;51.980;5.850;2022-09-30T00:03:23;5.73;;;4.77;;
51602;SDS011;37954;51.980;5.850;2022-09-30T00:07:34;5.50;;;4.90;;
51602;SDS011;37954;51.980;5.850;2022-09-30T00:11:46;5.40;;;4.90;;
51602;SDS011;37954;51.980;5.850;2022-09-30T00:15:58;5.23;;;4.73;;
51602;SDS011;37954;51.980;5.850;2022-09-30T00:20:10;5.40;;;4.90;;
51602;SDS011;37954;51.980;5.850;2022-09-30T00:24:21;5.30;;;4.80;;
51602;SDS011;37954;51.980;5.850;2022-09-30T00:28:33;5.30;;;4.80;;
51602;SDS011;37954;51.980;5.850;2022-09-30T00:32:45;5.37;;;4.87;;
51602;SDS011;37954;51.980;5.850;2022-09-30T00:36:56;4.57;;;4.17;;
51602;SDS011;37954;51.980;5.850;2022-09-30T00:41:08;5.37;;;4.87;;
51602;SDS011;37954;51.980;5.850;2022-09-30T00:45:20;6.50;;;5.37;;
51602;SDS011;37954;51.980;5.850;2022-09-30T00:49:31;5.07;;;4.67;;
51602;SDS011;37954;51.980;5.850;2022-09-30T00:53:48;5.93;;;5.27;;
51602;SDS011;37954;51.980;5.850;2022-09-30T00:58:05;8.90;;;5.13;;
51602;SDS011;37954;51.980;5.850;2022-09-30T01:02:19;6.77;;;4.97;;
51602;SDS011;37954;51.980;5.850;2022-09-30T01:06:31;5.90;;;5.30;;
51602;SDS011;37954;51.980;5.850;2022-09-30T01:10:43;6.43;;;5.63;;
51602;SDS011;37954;51.980;5.850;2022-09-30T01:14:55;6.17;;;5.37;;
51602;SDS011;37954;51.980;5.850;2022-09-30T01:19:23;6.67;;;5.43;;
51602;SDS011;37954;51.980;5.850;2022-09-30T01:28:17;5.90;;;5.40;;
51602;SDS011;37954;51.980;5.850;2022-09-30T01:32:44;6.30;;;5.70;;
51602;SDS011;37954;51.980;5.850;2022-09-30T01:37:24;5.20;;;4.67;;
51602;SDS011;37954;51.980;5.850;2022-09-30T01:46:07;6.23;;;5.67;;
51602;SDS011;37954;51.980;5.850;2022-09-30T01:50:28;6.70;;;5.97;;
51602;SDS011;37954;51.980;5.850;2022-09-30T01:54:52;6.60;;;5.90;;
51602;SDS011;37954;51.980;5.850;2022-09-30T01:59:11;7.67;;;6.10;;
51602;SDS011;37954;51.980;5.850;2022-09-30T02:03:32;7.27;;;6.57;;
51602;SDS011;37954;51.980;5.850;2022-09-30T02:07:53;7.53;;;6.57;;
51602;SDS011;37954;51.980;5.850;2022-09-30T02:12:10;7.20;;;6.50;;
51602;SDS011;37954;51.980;5.850;2022-09-30T02:16:31;7.23;;;6.53;;
51602;SDS011;37954;51.980;5.850;2022-09-30T02:20:51;10.57;;;7.43;;
51602;SDS011;37954;51.980;5.850;2022-09-30T02:25:16;9.17;;;7.27;;
51602;SDS011;37954;51.980;5.850;2022-09-30T02:29:33;7.47;;;6.73;;
51602;SDS011;37954;51.980;5.850;2022-09-30T02:33:51;8.53;;;7.17;;
51602;SDS011;37954;51.980;5.850;2022-09-30T02:38:09;9.07;;;6.93;;
51602;SDS011;37954;51.980;5.850;2022-09-30T02:42:26;8.97;;;6.90;;
51602;SDS011;37954;51.980;5.850;2022-09-30T02:46:52;7.80;;;7.07;;
51602;SDS011;37954;51.980;5.850;2022-09-30T02:51:23;7.67;;;6.93;;
51602;SDS011;37954;51.980;5.850;2022-09-30T03:00:15;7.87;;;7.07;;
51602;SDS011;37954;51.980;5.850;2022-09-30T03:04:28;9.30;;;7.23;;
51602;SDS011;37954;51.980;5.850;2022-09-30T03:08:44;7.67;;;6.87;;
51602;SDS011;37954;51.980;5.850;2022-09-30T03:13:01;7.77;;;6.97;;
51602;SDS011;37954;51.980;5.850;2022-09-30T03:17:27;10.50;;;7.70;;
51602;SDS011;37954;51.980;5.850;2022-09-30T03:21:58;7.83;;;7.03;;
51602;SDS011;37954;51.980;5.850;2022-09-30T03:26:39;9.23;;;8.17;;
51602;SDS011;37954;51.980;5.850;2022-09-30T03:31:25;9.57;;;8.23;;
51602;SDS011;37954;51.980;5.850;2022-09-30T03:49:09;10.27;;;9.23;;
51602;SDS011;37954;51.980;5.850;2022-09-30T03:53:24;10.70;;;9.60;;
51602;SDS011;37954;51.980;5.850;2022-09-30T03:57:38;11.07;;;9.87;;
51602;SDS011;37954;51.980;5.850;2022-09-30T04:01:50;9.30;;;8.13;;
51602;SDS011;37954;51.980;5.850;2022-09-30T04:06:04;9.43;;;8.53;;
51602;SDS011;37954;51.980;5.850;2022-09-30T04:10:18;9.87;;;8.87;;
51602;SDS011;37954;51.980;5.850;2022-09-30T04:14:30;10.27;;;9.00;;
51602;SDS011;37954;51.980;5.850;2022-09-30T04:18:41;10.63;;;9.60;;
51602;SDS011;37954;51.980;5.850;2022-09-30T04:22:55;10.80;;;9.73;;
51602;SDS011;37954;51.980;5.850;2022-09-30T04:27:11;10.97;;;9.87;;
51602;SDS011;37954;51.980;5.850;2022-09-30T04:31:22;9.63;;;8.73;;
51602;SDS011;37954;51.980;5.850;2022-09-30T04:35:35;12.57;;;9.57;;
51602;SDS011;37954;51.980;5.850;2022-09-30T04:39:47;11.27;;;9.60;;
51602;SDS011;37954;51.980;5.850;2022-09-30T04:43:59;10.67;;;9.33;;
51602;SDS011;37954;51.980;5.850;2022-09-30T04:48:16;11.80;;;10.60;;
51602;SDS011;37954;51.980;5.850;2022-09-30T04:52:27;13.50;;;12.20;;
51602;SDS011;37954;51.980;5.850;2022-09-30T04:56:39;13.03;;;11.40;;
51602;SDS011;37954;51.980;5.850;2022-09-30T05:00:51;12.03;;;10.83;;
51602;SDS011;37954;51.980;5.850;2022-09-30T05:05:02;13.83;;;12.33;;
51602;SDS011;37954;51.980;5.850;2022-09-30T05:09:14;12.47;;;11.17;;
51602;SDS011;37954;51.980;5.850;2022-09-30T05:13:31;14.97;;;12.17;;
51602;SDS011;37954;51.980;5.850;2022-09-30T05:17:44;14.80;;;13.13;;
51602;SDS011;37954;51.980;5.850;2022-09-30T05:21:59;20.63;;;13.80;;
51602;SDS011;37954;51.980;5.850;2022-09-30T05:26:11;24.67;;;13.23;;
51602;SDS011;37954;51.980;5.850;2022-09-30T05:30:23;21.70;;;14.23;;
51602;SDS011;37954;51.980;5.850;2022-09-30T05:34:34;19.90;;;13.60;;
51602;SDS011;37954;51.980;5.850;2022-09-30T05:38:51;22.00;;;14.17;;
51602;SDS011;37954;51.980;5.850;2022-09-30T05:43:03;19.00;;;14.47;;
51602;SDS011;37954;51.980;5.850;2022-09-30T05:47:15;35.50;;;24.70;;
51602;SDS011;37954;51.980;5.850;2022-09-30T05:51:27;21.43;;;16.00;;
51602;SDS011;37954;51.980;5.850;2022-09-30T05:55:39;19.40;;;15.87;;
51602;SDS011;37954;51.980;5.850;2022-09-30T05:59:50;15.63;;;13.93;;
51602;SDS011;37954;51.980;5.850;2022-09-30T06:04:02;16.30;;;14.00;;
51602;SDS011;37954;51.980;5.850;2022-09-30T06:08:14;17.90;;;14.17;;
51602;SDS011;37954;51.980;5.850;2022-09-30T06:12:26;16.50;;;13.07;;
51602;SDS011;37954;51.980;5.850;2022-09-30T06:16:39;15.07;;;12.57;;
51602;SDS011;37954;51.980;5.850;2022-09-30T06:20:51;15.07;;;11.77;;
51602;SDS011;37954;51.980;5.850;2022-09-30T06:25:03;12.37;;;11.07;;
51602;SDS011;37954;51.980;5.850;2022-09-30T06:29:16;11.60;;;10.40;;
51602;SDS011;37954;51.980;5.850;2022-09-30T06:33:27;11.47;;;10.10;;
51602;SDS011;37954;51.980;5.850;2022-09-30T06:37:39;10.93;;;9.83;;
51602;SDS011;37954;51.980;5.850;2022-09-30T06:41:52;11.03;;;9.77;;
51602;SDS011;37954;51.980;5.850;2022-09-30T06:46:08;9.73;;;8.73;;
51602;SDS011;37954;51.980;5.850;2022-09-30T06:50:32;11.40;;;9.63;;
51602;SDS011;37954;51.980;5.850;2022-09-30T06:54:44;11.93;;;10.73;;
51602;SDS011;37954;51.980;5.850;2022-09-30T06:58:57;12.90;;;11.50;;
51602;SDS011;37954;51.980;5.850;2022-09-30T07:03:10;12.47;;;11.17;;
51602;SDS011;37954;51.980;5.850;2022-09-30T07:07:34;13.83;;;10.70;;
51602;SDS011;37954;51.980;5.850;2022-09-30T07:11:47;16.73;;;11.73;;
51602;SDS011;37954;51.980;5.850;2022-09-30T07:15:58;14.40;;;12.90;;
51602;SDS011;37954;51.980;5.850;2022-09-30T07:20:10;18.60;;;13.37;;
51602;SDS011;37954;51.980;5.850;2022-09-30T07:24:22;16.70;;;13.50;;
51602;SDS011;37954;51.980;5.850;2022-09-30T07:28:34;15.90;;;12.90;;
51602;SDS011;37954;51.980;5.850;2022-09-30T07:32:46;16.87;;;14.20;;
51602;SDS011;37954;51.980;5.850;2022-09-30T07:36:58;16.50;;;14.70;;
51602;SDS011;37954;51.980;5.850;2022-09-30T07:41:14;14.63;;;13.10;;
51602;SDS011;37954;51.980;5.850;2022-09-30T07:45:27;13.65;;;12.25;;
51602;SDS011;37954;51.980;5.850;2022-09-30T07:49:39;14.65;;;12.30;;
51602;SDS011;37954;51.980;5.850;2022-09-30T07:53:53;13.38;;;11.77;;
51602;SDS011;37954;51.980;5.850;2022-09-30T07:58:07;16.05;;;11.77;;
51602;SDS011;37954;51.980;5.850;2022-09-30T08:02:21;14.05;;;11.70;;
51602;SDS011;37954;51.980;5.850;2022-09-30T08:06:35;12.60;;;11.30;;
51602;SDS011;37954;51.980;5.850;2022-09-30T08:10:48;13.13;;;11.27;;
51602;SDS011;37954;51.980;5.850;2022-09-30T08:15:00;12.85;;;11.18;;
51602;SDS011;37954;51.980;5.850;2022-09-30T08:19:12;14.63;;;11.73;;
51602;SDS011;37954;51.980;5.850;2022-09-30T08:23:27;14.10;;;12.20;;
51602;SDS011;37954;51.980;5.850;2022-09-30T08:27:39;13.48;;;12.07;;
51602;SDS011;37954;51.980;5.850;2022-09-30T08:31:51;12.43;;;11.13;;
51602;SDS011;37954;51.980;5.850;2022-09-30T08:36:04;13.98;;;11.43;;
51602;SDS011;37954;51.980;5.850;2022-09-30T08:40:24;13.30;;;11.18;;
51602;SDS011;37954;51.980;5.850;2022-09-30T08:44:42;12.75;;;11.45;;
51602;SDS011;37954;51.980;5.850;2022-09-30T08:53:32;12.98;;;10.20;;
51602;SDS011;37954;51.980;5.850;2022-09-30T08:57:47;11.65;;;10.50;;
51602;SDS011;37954;51.980;5.850;2022-09-30T09:16:26;10.77;;;9.68;;
51602;SDS011;37954;51.980;5.850;2022-09-30T09:20:49;10.60;;;9.57;;
51602;SDS011;37954;51.980;5.850;2022-09-30T09:25:08;10.73;;;9.38;;
51602;SDS011;37954;51.980;5.850;2022-09-30T09:29:42;9.90;;;8.90;;
51602;SDS011;37954;51.980;5.850;2022-09-30T09:34:17;10.23;;;9.23;;
51602;SDS011;37954;51.980;5.850;2022-09-30T09:38:29;10.43;;;9.43;;
51602;SDS011;37954;51.980;5.850;2022-09-30T09:43:13;10.85;;;9.75;;
51602;SDS011;37954;51.980;5.850;2022-09-30T09:47:39;10.32;;;9.38;;
51602;SDS011;37954;51.980;5.850;2022-09-30T09:56:22;10.27;;;9.27;;
51602;SDS011;37954;51.980;5.850;2022-09-30T10:00:42;9.65;;;8.65;;
51602;SDS011;37954;51.980;5.850;2022-09-30T10:04:57;10.05;;;8.85;;
51602;SDS011;37954;51.980;5.850;2022-09-30T10:09:23;10.00;;;9.05;;
51602;SDS011;37954;51.980;5.850;2022-09-30T10:17:57;12.00;;;8.75;;
51602;SDS011;37954;51.980;5.850;2022-09-30T10:26:28;8.27;;;7.55;;
51602;SDS011;37954;51.980;5.850;2022-09-30T10:35:06;8.02;;;7.07;;
51602;SDS011;37954;51.980;5.850;2022-09-30T10:39:37;7.60;;;6.80;;
51602;SDS011;37954;51.980;5.850;2022-09-30T10:43:52;7.88;;;7.18;;
51602;SDS011;37954;51.980;5.850;2022-09-30T10:48:12;12.38;;;6.40;;
51602;SDS011;37954;51.980;5.850;2022-09-30T10:57:23;6.18;;;5.57;;
51602;SDS011;37954;51.980;5.850;2022-09-30T11:01:55;7.75;;;6.05;;
51602;SDS011;37954;51.980;5.850;2022-09-30T11:06:16;10.90;;;5.68;;
51602;SDS011;37954;51.980;5.850;2022-09-30T11:15:47;6.07;;;5.25;;
51602;SDS011;37954;51.980;5.850;2022-09-30T11:20:29;5.80;;;5.20;;
51602;SDS011;37954;51.980;5.850;2022-09-30T11:24:47;5.80;;;5.30;;
51602;SDS011;37954;51.980;5.850;2022-09-30T11:43:13;8.13;;;7.35;;
51602;SDS011;37954;51.980;5.850;2022-09-30T11:48:34;7.32;;;5.90;;
51602;SDS011;37954;51.980;5.850;2022-09-30T11:57:21;7.00;;;6.05;;
51602;SDS011;37954;51.980;5.850;2022-09-30T12:01:40;7.05;;;6.35;;
51602;SDS011;37954;51.980;5.850;2022-09-30T12:05:56;6.07;;;5.45;;
51602;SDS011;37954;51.980;5.850;2022-09-30T12:19:16;5.60;;;5.10;;
51602;SDS011;37954;51.980;5.850;2022-09-30T12:23:41;5.70;;;5.10;;
51602;SDS011;37954;51.980;5.850;2022-09-30T12:28:01;5.28;;;4.78;;
51602;SDS011;37954;51.980;5.850;2022-09-30T12:37:20;5.50;;;3.80;;
51602;SDS011;37954;51.980;5.850;2022-09-30T12:51:05;3.13;;;2.00;;
51602;SDS011;37954;51.980;5.850;2022-09-30T12:55:27;2.90;;;2.20;;
51602;SDS011;37954;51.980;5.850;2022-09-30T12:59:46;2.42;;;2.22;;
51602;SDS011;37954;51.980;5.850;2022-09-30T13:12:39;2.03;;;1.92;;
51602;SDS011;37954;51.980;5.850;2022-09-30T13:21:20;2.38;;;1.80;;
51602;SDS011;37954;51.980;5.850;2022-09-30T13:25:51;1.80;;;1.70;;
51602;SDS011;37954;51.980;5.850;2022-09-30T13:34:31;2.30;;;1.98;;
51602;SDS011;37954;51.980;5.850;2022-09-30T13:38:45;2.20;;;1.90;;
51602;SDS011;37954;51.980;5.850;2022-09-30T13:43:17;1.90;;;1.80;;
51602;SDS011;37954;51.980;5.850;2022-09-30T13:52:23;1.85;;;1.75;;
51602;SDS011;37954;51.980;5.850;2022-09-30T13:56:37;1.95;;;1.75;;
51602;SDS011;37954;51.980;5.850;2022-09-30T14:00:53;1.77;;;1.67;;
51602;SDS011;37954;51.980;5.850;2022-09-30T14:14:35;3.40;;;1.65;;
51602;SDS011;37954;51.980;5.850;2022-09-30T14:23:56;3.33;;;2.22;;
51602;SDS011;37954;51.980;5.850;2022-09-30T14:28:11;2.55;;;2.10;;
51602;SDS011;37954;51.980;5.850;2022-09-30T14:36:57;1.80;;;1.70;;
51602;SDS011;37954;51.980;5.850;2022-09-30T14:41:13;2.63;;;1.80;;
51602;SDS011;37954;51.980;5.850;2022-09-30T14:45:29;2.50;;;1.73;;
51602;SDS011;37954;51.980;5.850;2022-09-30T14:49:43;2.15;;;1.58;;
51602;SDS011;37954;51.980;5.850;2022-09-30T14:53:56;1.33;;;1.23;;
51602;SDS011;37954;51.980;5.850;2022-09-30T15:02:31;3.25;;;1.27;;
51602;SDS011;37954;51.980;5.850;2022-09-30T15:06:44;2.40;;;1.70;;
51602;SDS011;37954;51.980;5.850;2022-09-30T15:10:58;2.20;;;2.00;;
51602;SDS011;37954;51.980;5.850;2022-09-30T15:15:27;1.77;;;1.67;;
51602;SDS011;37954;51.980;5.850;2022-09-30T15:19:47;2.45;;;1.80;;
51602;SDS011;37954;51.980;5.850;2022-09-30T15:24:00;2.90;;;1.70;;
51602;SDS011;37954;51.980;5.850;2022-09-30T15:28:12;2.03;;;1.83;;
51602;SDS011;37954;51.980;5.850;2022-09-30T15:32:25;1.95;;;1.60;;
51602;SDS011;37954;51.980;5.850;2022-09-30T15:36:39;4.72;;;2.03;;
51602;SDS011;37954;51.980;5.850;2022-09-30T15:40:57;2.28;;;1.73;;
51602;SDS011;37954;51.980;5.850;2022-09-30T15:49:33;2.72;;;1.80;;
51602;SDS011;37954;51.980;5.850;2022-09-30T15:53:56;2.63;;;1.92;;
51602;SDS011;37954;51.980;5.850;2022-09-30T15:58:32;2.92;;;1.75;;
51602;SDS011;37954;51.980;5.850;2022-09-30T16:02:45;2.25;;;1.90;;
51602;SDS011;37954;51.980;5.850;2022-09-30T16:07:07;2.33;;;2.13;;
51602;SDS011;37954;51.980;5.850;2022-09-30T16:11:25;3.30;;;2.20;;
51602;SDS011;37954;51.980;5.850;2022-09-30T16:15:40;2.25;;;1.90;;
51602;SDS011;37954;51.980;5.850;2022-09-30T16:19:53;2.20;;;2.00;;
51602;SDS011;37954;51.980;5.850;2022-09-30T16:28:32;2.10;;;1.90;;
51602;SDS011;37954;51.980;5.850;2022-09-30T16:32:45;2.35;;;2.15;;
51602;SDS011;37954;51.980;5.850;2022-09-30T16:37:08;2.38;;;2.17;;
51602;SDS011;37954;51.980;5.850;2022-09-30T16:41:23;3.60;;;2.05;;
51602;SDS011;37954;51.980;5.850;2022-09-30T16:45:36;2.08;;;1.88;;
51602;SDS011;37954;51.980;5.850;2022-09-30T16:49:48;2.80;;;2.20;;
51602;SDS011;37954;51.980;5.850;2022-09-30T16:54:01;2.70;;;2.25;;
51602;SDS011;37954;51.980;5.850;2022-09-30T16:58:12;2.85;;;2.00;;
51602;SDS011;37954;51.980;5.850;2022-09-30T17:02:24;3.03;;;2.28;;
51602;SDS011;37954;51.980;5.850;2022-09-30T17:06:36;3.22;;;2.17;;
51602;SDS011;37954;51.980;5.850;2022-09-30T17:10:48;3.15;;;2.78;;
51602;SDS011;37954;51.980;5.850;2022-09-30T17:15:00;2.97;;;2.60;;
51602;SDS011;37954;51.980;5.850;2022-09-30T17:19:12;2.83;;;2.53;;
51602;SDS011;37954;51.980;5.850;2022-09-30T17:23:24;3.20;;;2.38;;
51602;SDS011;37954;51.980;5.850;2022-09-30T17:27:36;4.93;;;3.88;;
51602;SDS011;37954;51.980;5.850;2022-09-30T17:31:48;4.22;;;2.42;;
51602;SDS011;37954;51.980;5.850;2022-09-30T17:36:04;4.88;;;3.15;;
51602;SDS011;37954;51.980;5.850;2022-09-30T17:40:17;3.53;;;2.58;;
51602;SDS011;37954;51.980;5.850;2022-09-30T17:44:48;3.05;;;2.17;;
51602;SDS011;37954;51.980;5.850;2022-09-30T17:48:59;3.28;;;2.28;;
51602;SDS011;37954;51.980;5.850;2022-09-30T17:53:11;4.65;;;4.03;;
51602;SDS011;37954;51.980;5.850;2022-09-30T17:57:27;7.70;;;5.68;;
51602;SDS011;37954;51.980;5.850;2022-09-30T18:01:38;4.80;;;3.67;;
51602;SDS011;37954;51.980;5.850;2022-09-30T18:05:58;6.80;;;6.10;;
51602;SDS011;37954;51.980;5.850;2022-09-30T18:10:10;3.40;;;3.10;;
51602;SDS011;37954;51.980;5.850;2022-09-30T18:14:21;2.95;;;2.30;;
51602;SDS011;37954;51.980;5.850;2022-09-30T18:18:33;2.88;;;2.60;;
51602;SDS011;37954;51.980;5.850;2022-09-30T18:22:45;4.95;;;2.67;;
51602;SDS011;37954;51.980;5.850;2022-09-30T18:26:56;4.80;;;2.50;;
51602;SDS011;37954;51.980;5.850;2022-09-30T18:31:08;4.90;;;2.90;;
51602;SDS011;37954;51.980;5.850;2022-09-30T18:35:21;6.15;;;2.78;;
51602;SDS011;37954;51.980;5.850;2022-09-30T18:39:34;4.20;;;3.25;;
51602;SDS011;37954;51.980;5.850;2022-09-30T18:43:49;2.80;;;2.60;;
51602;SDS011;37954;51.980;5.850;2022-09-30T18:48:00;3.15;;;2.85;;
51602;SDS011;37954;51.980;5.850;2022-09-30T18:52:12;4.22;;;3.10;;
51602;SDS011;37954;51.980;5.850;2022-09-30T18:56:24;3.88;;;2.90;;
51602;SDS011;37954;51.980;5.850;2022-09-30T19:00:39;3.45;;;3.15;;
51602;SDS011;37954;51.980;5.850;2022-09-30T19:04:51;3.20;;;2.63;;
51602;SDS011;37954;51.980;5.850;2022-09-30T19:09:07;3.92;;;2.67;;
51602;SDS011;37954;51.980;5.850;2022-09-30T19:13:19;3.58;;;3.03;;
51602;SDS011;37954;51.980;5.850;2022-09-30T19:17:31;3.60;;;2.85;;
51602;SDS011;37954;51.980;5.850;2022-09-30T19:21:43;3.45;;;2.72;;
51602;SDS011;37954;51.980;5.850;2022-09-30T19:25:54;2.78;;;2.47;;
51602;SDS011;37954;51.980;5.850;2022-09-30T19:30:07;6.80;;;3.00;;
51602;SDS011;37954;51.980;5.850;2022-09-30T19:34:20;4.20;;;2.95;;
51602;SDS011;37954;51.980;5.850;2022-09-30T19:38:42;3.20;;;2.70;;
51602;SDS011;37954;51.980;5.850;2022-09-30T19:42:55;3.08;;;2.78;;
51602;SDS011;37954;51.980;5.850;2022-09-30T19:47:07;9.07;;;4.80;;
51602;SDS011;37954;51.980;5.850;2022-09-30T19:51:19;10.00;;;4.45;;
51602;SDS011;37954;51.980;5.850;2022-09-30T19:55:30;8.43;;;4.85;;
51602;SDS011;37954;51.980;5.850;2022-09-30T19:59:58;4.05;;;3.53;;
51602;SDS011;37954;51.980;5.850;2022-09-30T20:04:19;3.50;;;3.20;;
51602;SDS011;37954;51.980;5.850;2022-09-30T20:08:32;3.00;;;2.78;;
51602;SDS011;37954;51.980;5.850;2022-09-30T20:12:45;3.13;;;2.70;;
51602;SDS011;37954;51.980;5.850;2022-09-30T20:16:56;3.53;;;2.80;;
51602;SDS011;37954;51.980;5.850;2022-09-30T20:21:09;3.75;;;3.13;;
51602;SDS011;37954;51.980;5.850;2022-09-30T20:25:21;2.88;;;2.33;;
51602;SDS011;37954;51.980;5.850;2022-09-30T20:29:33;3.03;;;2.70;;
51602;SDS011;37954;51.980;5.850;2022-09-30T20:33:44;3.70;;;2.80;;
51602;SDS011;37954;51.980;5.850;2022-09-30T20:37:57;2.50;;;2.30;;
51602;SDS011;37954;51.980;5.850;2022-09-30T20:42:09;3.50;;;2.60;;
51602;SDS011;37954;51.980;5.850;2022-09-30T20:46:21;3.00;;;2.65;;
51602;SDS011;37954;51.980;5.850;2022-09-30T20:50:33;3.72;;;2.63;;
51602;SDS011;37954;51.980;5.850;2022-09-30T20:54:45;3.25;;;2.78;;
51602;SDS011;37954;51.980;5.850;2022-09-30T20:58:57;4.05;;;3.20;;
51602;SDS011;37954;51.980;5.850;2022-09-30T21:03:10;3.38;;;2.58;;
51602;SDS011;37954;51.980;5.850;2022-09-30T21:07:24;3.00;;;2.70;;
51602;SDS011;37954;51.980;5.850;2022-09-30T21:11:38;3.60;;;2.85;;
51602;SDS011;37954;51.980;5.850;2022-09-30T21:15:59;7.03;;;3.55;;
51602;SDS011;37954;51.980;5.850;2022-09-30T21:20:11;2.90;;;2.42;;
51602;SDS011;37954;51.980;5.850;2022-09-30T21:24:23;7.15;;;3.05;;
51602;SDS011;37954;51.980;5.850;2022-09-30T21:28:36;5.10;;;3.75;;
51602;SDS011;37954;51.980;5.850;2022-09-30T21:32:48;8.13;;;3.83;;
51602;SDS011;37954;51.980;5.850;2022-09-30T21:36:59;3.35;;;2.80;;
51602;SDS011;37954;51.980;5.850;2022-09-30T21:41:24;4.05;;;3.17;;
51602;SDS011;37954;51.980;5.850;2022-09-30T21:50:39;3.70;;;2.80;;
51602;SDS011;37954;51.980;5.850;2022-09-30T21:54:51;2.63;;;2.42;;
51602;SDS011;37954;51.980;5.850;2022-09-30T21:59:05;3.40;;;2.63;;
51602;SDS011;37954;51.980;5.850;2022-09-30T22:03:17;3.75;;;3.25;;
51602;SDS011;37954;51.980;5.850;2022-09-30T22:07:29;4.57;;;2.80;;
51602;SDS011;37954;51.980;5.850;2022-09-30T22:11:43;2.83;;;2.50;;
51602;SDS011;37954;51.980;5.850;2022-09-30T22:16:00;3.00;;;2.70;;
51602;SDS011;37954;51.980;5.850;2022-09-30T22:20:14;2.92;;;2.70;;
51602;SDS011;37954;51.980;5.850;2022-09-30T22:24:25;3.58;;;3.17;;
51602;SDS011;37954;51.980;5.850;2022-09-30T22:28:37;3.13;;;2.92;;
51602;SDS011;37954;51.980;5.850;2022-09-30T22:32:49;4.15;;;3.25;;
51602;SDS011;37954;51.980;5.850;2022-09-30T22:37:21;5.47;;;3.20;;
51602;SDS011;37954;51.980;5.850;2022-09-30T22:41:51;6.20;;;3.72;;
51602;SDS011;37954;51.980;5.850;2022-09-30T22:46:05;3.97;;;3.33;;
51602;SDS011;37954;51.980;5.850;2022-09-30T22:50:18;4.45;;;3.80;;
51602;SDS011;37954;51.980;5.850;2022-09-30T22:54:30;4.38;;;3.97;;
51602;SDS011;37954;51.980;5.850;2022-09-30T22:58:42;3.97;;;3.60;;
51602;SDS011;37954;51.980;5.850;2022-09-30T23:02:55;5.18;;;3.80;;
51602;SDS011;37954;51.980;5.850;2022-09-30T23:07:06;4.00;;;3.60;;
51602;SDS011;37954;51.980;5.850;2022-09-30T23:11:18;5.00;;;3.80;;
51602;SDS011;37954;51.980;5.850;2022-09-30T23:15:31;4.00;;;3.60;;
51602;SDS011;37954;51.980;5.850;2022-09-30T23:19:43;4.65;;;3.45;;
51602;SDS011;37954;51.980;5.850;2022-09-30T23:23:55;4.35;;;3.65;;
51602;SDS011;37954;51.980;5.850;2022-09-30T23:28:06;6.97;;;3.42;;
51602;SDS011;37954;51.980;5.850;2022-09-30T23:32:18;5.38;;;4.10;;
51602;SDS011;37954;51.980;5.850;2022-09-30T23:36:30;4.90;;;3.90;;
51602;SDS011;37954;51.980;5.850;2022-09-30T23:40:45;4.23;;;3.70;;
51602;SDS011;37954;51.980;5.850;2022-09-30T23:44:58;5.80;;;3.80;;
51602;SDS011;37954;51.980;5.850;2022-09-30T23:49:09;4.63;;;4.13;;
51602;SDS011;37954;51.980;5.850;2022-09-30T23:53:21;4.43;;;3.92;;
51602;SDS011;37954;51.980;5.850;2022-09-30T23:57:33;4.57;;;4.18;;
